MMOX/OAX METAR and TAF weather

Enter ICAO airport designator
Station Type Date Time Source
MMOX METAR 2020/06/05 23:40 UTC NOAA

MMOX 052340Z 12004KT 12SM SCT030TCU SCT120 27/11 A3001 RMK SLP047 57004 9// 8/230 CB FRMG N


Station Type Date Time Source
MMOX Decoded METAR 2020/06/05 23:40 UTC NOAA

Oaxaca / Xoxocotlan, Mexico (MMOX) 16-58N 096-44W
Jun 05, 2020 - 07:40 PM EDT / 2020.06.05 2340 UTC
Wind: from the ESE (120 degrees) at 5 MPH (4 KT):0
Visibility: 12 mile(s):0
Sky conditions: partly cloudy
Weather: Cumulonimbus clouds, towering cumulus clouds observed
Temperature: 80 F (27 C)
Dew Point: 51 F (11 C)
Relative Humidity: 36%
Pressure (altimeter): 30.01 in. Hg (1016 hPa)
Pressure tendency: 0.01 inches (0.4 hPa) lower than three hours ago
ob: MMOX 052340Z 12004KT 12SM SCT030TCU SCT120 27/11 A3001 RMK SLP047 57004 9// 8/230 CB FRMG N
cycle: 23

Station Type Date Time Source
MMOX TAF 2020/06/05 18:25 UTC NOAA

TAF MMOX 051617Z 0518/0618 00000KT P6SM SCT030
FM052000 20010KT P6SM BKN030
TEMPO 0522/0602 5SM TSRA BKN020CB
FM060300 00000KT P6SM SCT020 BKN250

Example: see airport list